createdAt,value
2023-03-31T00:01:45.052Z,7.44
2023-03-31T00:04:14.316Z,7.45
2023-03-31T00:06:44.360Z,7.53
2023-03-31T00:09:17.794Z,7.66
2023-03-31T00:11:47.428Z,7.60
2023-03-31T00:14:17.983Z,7.59
2023-03-31T00:16:47.316Z,7.45
2023-03-31T00:19:34.380Z,7.56
2023-03-31T00:22:10.782Z,7.57
2023-03-31T00:24:39.545Z,7.71
2023-03-31T00:27:08.259Z,7.69
2023-03-31T00:29:37.104Z,7.54
2023-03-31T00:32:05.960Z,7.56
2023-03-31T00:34:34.818Z,7.52
2023-03-31T00:37:03.529Z,7.66
2023-03-31T00:39:33.983Z,7.77
2023-03-31T00:42:06.126Z,7.71
2023-03-31T00:44:34.751Z,7.91
2023-03-31T00:47:09.849Z,7.81
2023-03-31T00:49:54.444Z,7.76
2023-03-31T00:52:36.711Z,7.70
2023-03-31T00:55:08.592Z,7.86
2023-03-31T00:57:40.157Z,7.78
2023-03-31T01:00:15.451Z,8.04
2023-03-31T01:02:48.705Z,7.88
2023-03-31T01:05:17.828Z,7.94
2023-03-31T01:07:49.046Z,8.02
2023-03-31T01:10:17.828Z,8.21
2023-03-31T01:12:49.905Z,7.91
2023-03-31T01:15:18.569Z,7.98
2023-03-31T01:17:49.752Z,8.27
2023-03-31T01:21:02.628Z,8.30
2023-03-31T01:23:44.261Z,8.32
2023-03-31T01:26:42.134Z,8.35
2023-03-31T01:29:18.181Z,8.33
2023-03-31T01:31:59.050Z,8.49
2023-03-31T01:34:47.225Z,8.54
2023-03-31T01:37:35.516Z,8.48
2023-03-31T01:40:26.761Z,8.58
2023-03-31T01:42:58.579Z,8.69
2023-03-31T01:45:46.970Z,8.62
2023-03-31T01:48:24.504Z,8.70
2023-03-31T01:50:59.243Z,8.73
2023-03-31T01:53:36.401Z,8.75
2023-03-31T01:56:23.650Z,8.81
2023-03-31T01:59:01.899Z,8.84
2023-03-31T02:01:37.295Z,8.87
2023-03-31T02:04:08.616Z,8.84
2023-03-31T02:06:40.292Z,8.77
2023-03-31T02:09:11.846Z,9.00
2023-03-31T02:11:42.483Z,8.81
2023-03-31T02:14:14.095Z,8.72
2023-03-31T02:16:48.040Z,8.83
2023-03-31T02:19:19.822Z,8.93
2023-03-31T02:21:51.021Z,8.90
2023-03-31T02:24:22.848Z,8.77
2023-03-31T02:26:57.098Z,8.82
2023-03-31T02:29:26.227Z,8.90
2023-03-31T02:31:58.003Z,8.69
2023-03-31T02:34:26.834Z,8.94
2023-03-31T02:36:55.868Z,8.76
2023-03-31T02:39:33.079Z,8.61
2023-03-31T02:42:04.423Z,8.57
2023-03-31T02:44:33.172Z,8.58
2023-03-31T02:47:03.150Z,8.33
2023-03-31T02:49:33.747Z,8.45
2023-03-31T02:52:05.347Z,8.34
2023-03-31T02:55:02.713Z,8.38
2023-03-31T02:57:50.769Z,8.19
2023-03-31T03:00:45.099Z,8.43
2023-03-31T03:03:31.747Z,8.53
2023-03-31T03:06:06.726Z,8.38
2023-03-31T03:08:52.277Z,8.36
2023-03-31T03:11:29.874Z,8.35
2023-03-31T03:14:13.446Z,7.78
2023-03-31T03:16:48.260Z,8.48
2023-03-31T03:19:22.750Z,8.43
2023-03-31T03:21:51.527Z,8.33
2023-03-31T03:24:21.960Z,8.23
2023-03-31T03:26:51.996Z,8.23
2023-03-31T03:29:20.784Z,8.23
2023-03-31T03:31:49.554Z,8.18
2023-03-31T03:34:19.017Z,8.09
2023-03-31T03:36:48.561Z,8.15
2023-03-31T03:39:17.213Z,8.28
2023-03-31T03:41:46.986Z,8.27
2023-03-31T03:44:15.955Z,8.27
2023-03-31T03:46:47.608Z,8.40
2023-03-31T03:49:16.581Z,8.46
2023-03-31T03:51:45.293Z,8.44
2023-03-31T03:54:14.719Z,8.45
2023-03-31T03:56:43.450Z,8.43
2023-03-31T03:59:13.136Z,8.45
2023-03-31T04:01:41.996Z,8.49
2023-03-31T04:04:10.723Z,8.41
2023-03-31T04:06:39.603Z,8.52
2023-03-31T04:09:08.418Z,8.56
2023-03-31T04:11:37.113Z,8.67
2023-03-31T04:14:06.519Z,8.64
2023-03-31T04:16:35.253Z,8.76
2023-03-31T04:19:05.135Z,8.79
2023-03-31T04:21:36.680Z,8.71
2023-03-31T04:24:05.535Z,8.81
2023-03-31T04:26:44.976Z,8.75
2023-03-31T04:29:20.591Z,8.73
2023-03-31T04:31:51.267Z,8.73
2023-03-31T04:34:21.580Z,8.71
2023-03-31T04:36:50.322Z,8.65
2023-03-31T04:39:24.992Z,8.79
2023-03-31T04:41:55.785Z,8.73
2023-03-31T04:44:24.707Z,8.73
2023-03-31T04:46:53.891Z,8.81
2023-03-31T04:55:15.099Z,9.20
2023-03-31T04:57:43.931Z,9.24
2023-03-31T05:00:15.702Z,9.27
2023-03-31T05:02:45.923Z,9.38
2023-03-31T05:05:14.942Z,9.41
2023-03-31T05:07:43.737Z,9.49
2023-03-31T05:30:58.155Z,9.45
2023-03-31T05:33:45.648Z,9.61
2023-03-31T05:45:09.536Z,9.92
2023-03-31T05:47:38.279Z,10.28
2023-03-31T05:50:14.986Z,10.39
2023-03-31T05:52:44.038Z,10.67
2023-03-31T05:55:13.345Z,11.07
2023-03-31T05:57:42.086Z,11.38
2023-03-31T06:00:11.800Z,11.63
2023-03-31T06:02:41.903Z,11.65
2023-03-31T06:05:10.951Z,11.69
2023-03-31T06:07:41.629Z,11.61
2023-03-31T06:10:11.145Z,11.62
2023-03-31T06:12:56.765Z,11.28
2023-03-31T06:15:29.072Z,11.48
2023-03-31T06:17:57.916Z,11.65
2023-03-31T06:20:28.550Z,11.88
2023-03-31T06:22:57.329Z,11.98
2023-03-31T06:25:26.282Z,11.93
2023-03-31T06:27:55.026Z,11.68
2023-03-31T06:30:23.850Z,11.80
2023-03-31T06:32:54.116Z,11.89
2023-03-31T06:35:52.874Z,12.11
2023-03-31T06:38:21.641Z,11.77
2023-03-31T06:40:51.882Z,11.79
2023-03-31T06:43:21.028Z,11.83
2023-03-31T06:45:53.320Z,12.11
2023-03-31T06:48:24.345Z,12.41
2023-03-31T06:50:57.530Z,12.84
2023-03-31T06:53:26.327Z,13.20
2023-03-31T06:55:55.077Z,13.71
2023-03-31T06:58:29.076Z,13.88
2023-03-31T07:00:59.833Z,14.09
2023-03-31T07:03:29.756Z,14.30
2023-03-31T07:05:58.608Z,14.55
2023-03-31T07:08:27.336Z,14.49
2023-03-31T07:10:58.819Z,14.45
2023-03-31T07:13:29.799Z,14.00
2023-03-31T07:15:58.736Z,13.60
2023-03-31T07:18:29.168Z,13.66
2023-03-31T07:21:01.076Z,13.81
2023-03-31T07:23:29.912Z,13.75
2023-03-31T07:26:02.954Z,13.81
2023-03-31T07:28:33.793Z,13.49
2023-03-31T07:31:02.595Z,13.48
2023-03-31T07:44:08.710Z,13.19
2023-03-31T07:47:22.351Z,13.54
2023-03-31T07:50:00.513Z,13.43
2023-03-31T07:59:10.542Z,13.75
2023-03-31T08:20:13.238Z,14.71
2023-03-31T08:25:33.607Z,14.01
2023-03-31T08:35:02.816Z,14.29
2023-03-31T08:37:39.593Z,14.03
2023-03-31T08:45:49.644Z,14.29
2023-03-31T08:48:41.178Z,14.01
2023-03-31T08:51:35.140Z,14.06
2023-03-31T08:54:21.976Z,14.32
2023-03-31T08:56:52.450Z,13.91
2023-03-31T08:59:40.967Z,13.63
2023-03-31T09:02:54.918Z,13.69
2023-03-31T09:05:58.911Z,13.95
2023-03-31T09:08:56.040Z,14.45
2023-03-31T09:14:53.131Z,14.44
2023-03-31T09:17:48.164Z,15.40
2023-03-31T09:20:22.262Z,15.81
2023-03-31T09:23:00.133Z,16.03
2023-03-31T09:32:34.104Z,15.84
2023-03-31T09:35:36.565Z,16.82
2023-03-31T09:38:43.491Z,16.19
2023-03-31T09:41:20.112Z,15.85
2023-03-31T09:50:20.054Z,15.93
2023-03-31T09:52:55.360Z,15.93
2023-03-31T09:59:03.086Z,16.37
2023-03-31T10:01:36.876Z,16.50
2023-03-31T10:04:15.980Z,16.43
2023-03-31T10:06:47.464Z,15.87
2023-03-31T10:09:17.256Z,16.38
2023-03-31T10:12:03.173Z,15.90
2023-03-31T10:15:09.642Z,16.54
2023-03-31T10:17:40.620Z,16.53
2023-03-31T10:20:11.227Z,16.26
2023-03-31T10:22:56.280Z,16.39
2023-03-31T10:28:38.166Z,16.99
2023-03-31T10:44:47.699Z,16.48
2023-03-31T10:47:25.961Z,16.11
2023-03-31T10:49:59.300Z,16.08
2023-03-31T10:52:29.025Z,16.11
2023-03-31T10:55:02.294Z,16.21
2023-03-31T10:57:45.727Z,16.30
2023-03-31T11:00:47.596Z,16.60
2023-03-31T11:07:05.979Z,16.42
2023-03-31T11:17:23.239Z,16.63
2023-03-31T11:20:14.170Z,16.53
2023-03-31T11:25:40.520Z,16.52
2023-03-31T11:28:34.264Z,16.46
2023-03-31T11:32:08.176Z,16.54
2023-03-31T11:34:21.408Z,16.89
2023-03-31T11:37:25.472Z,16.64
2023-03-31T11:40:13.872Z,16.71
2023-03-31T11:42:55.155Z,16.61
2023-03-31T11:45:32.747Z,16.30
2023-03-31T11:48:07.444Z,16.56
2023-03-31T11:50:39.766Z,16.75
2023-03-31T11:53:23.958Z,16.82
2023-03-31T11:56:11.033Z,16.86
2023-03-31T11:58:56.458Z,16.55
2023-03-31T12:08:23.997Z,16.60
2023-03-31T12:11:33.214Z,16.77
2023-03-31T12:14:09.399Z,16.96
2023-03-31T12:16:59.972Z,16.97
2023-03-31T12:19:54.682Z,17.00
2023-03-31T12:22:29.193Z,16.92
2023-03-31T12:28:36.800Z,17.28
2023-03-31T12:31:12.371Z,16.73
2023-03-31T12:37:51.844Z,16.60
2023-03-31T12:40:41.413Z,17.05
2023-03-31T12:43:17.229Z,17.18
2023-03-31T12:46:08.402Z,17.03
2023-03-31T12:49:20.050Z,17.30
2023-03-31T13:12:31.811Z,18.53
2023-03-31T13:15:22.950Z,18.78
2023-03-31T13:18:02.254Z,18.23
2023-03-31T13:23:37.745Z,18.13
2023-03-31T13:26:08.542Z,18.08
2023-03-31T13:29:19.948Z,18.54
2023-03-31T13:35:40.115Z,18.91
2023-03-31T13:38:13.165Z,17.84
2023-03-31T13:41:13.267Z,17.96
2023-03-31T13:44:07.146Z,18.11
2023-03-31T13:46:51.626Z,18.15
2023-03-31T13:49:49.215Z,17.93
2023-03-31T13:59:37.060Z,17.44
2023-03-31T14:02:38.979Z,17.27
2023-03-31T14:05:31.465Z,17.71
2023-03-31T14:08:05.039Z,17.55
2023-03-31T14:10:41.705Z,17.72
2023-03-31T14:13:33.999Z,17.87
2023-03-31T14:22:46.006Z,17.91
2023-03-31T14:25:36.979Z,17.94
2023-03-31T14:28:39.887Z,17.75
2023-03-31T14:31:41.929Z,17.52
2023-03-31T14:35:25.048Z,17.43
2023-03-31T14:40:33.495Z,17.40
2023-03-31T14:43:12.191Z,17.46
2023-03-31T14:48:58.121Z,17.26
2023-03-31T14:51:47.169Z,17.29
2023-03-31T14:54:20.894Z,17.29
2023-03-31T14:56:52.874Z,17.34
2023-03-31T14:59:37.728Z,17.33
2023-03-31T15:02:08.852Z,17.29
2023-03-31T15:04:45.240Z,17.37
2023-03-31T15:08:09.202Z,17.42
2023-03-31T15:10:00.304Z,17.82
2023-03-31T15:12:38.225Z,18.17
2023-03-31T15:19:07.786Z,18.84
2023-03-31T15:21:46.117Z,18.60
2023-03-31T15:28:01.603Z,17.76
2023-03-31T15:31:10.033Z,17.39
2023-03-31T15:33:44.348Z,17.22
2023-03-31T15:43:44.619Z,17.21
2023-03-31T15:46:19.087Z,18.20
2023-03-31T15:49:10.442Z,18.93
2023-03-31T15:51:36.350Z,19.26
2023-03-31T15:54:06.818Z,19.22
2023-03-31T15:56:46.940Z,19.31
2023-03-31T16:02:05.877Z,19.54
2023-03-31T16:04:37.637Z,19.93
2023-03-31T16:07:18.534Z,20.07
2023-03-31T16:10:11.353Z,19.71
2023-03-31T16:12:49.825Z,19.09
2023-03-31T16:15:25.023Z,18.57
2023-03-31T16:17:58.808Z,18.09
2023-03-31T16:20:34.932Z,17.59
2023-03-31T16:23:05.515Z,17.11
2023-03-31T16:25:37.340Z,16.85
2023-03-31T16:28:08.516Z,16.52
2023-03-31T16:30:46.244Z,16.36
2023-03-31T16:33:26.943Z,16.09
2023-03-31T16:35:59.944Z,15.87
2023-03-31T16:39:20.439Z,15.69
2023-03-31T16:41:49.316Z,15.50
2023-03-31T16:44:18.303Z,15.26
2023-03-31T16:46:47.140Z,15.10
2023-03-31T16:49:16.105Z,14.95
2023-03-31T16:51:46.852Z,14.89
2023-03-31T16:54:15.621Z,14.66
2023-03-31T16:56:47.472Z,14.53
2023-03-31T16:59:16.480Z,14.44
2023-03-31T17:01:45.795Z,14.34
2023-03-31T17:04:14.520Z,14.21
2023-03-31T17:06:43.644Z,14.19
2023-03-31T17:09:12.467Z,13.98
2023-03-31T17:11:50.018Z,13.93
2023-03-31T17:14:23.628Z,13.77
2023-03-31T17:16:58.860Z,13.66
2023-03-31T17:19:40.168Z,13.59
2023-03-31T17:28:06.329Z,13.30
2023-03-31T17:30:51.984Z,13.24
2023-03-31T17:33:24.649Z,13.25
2023-03-31T17:35:59.623Z,13.20
2023-03-31T17:47:24.435Z,13.04
2023-03-31T17:49:53.613Z,13.00
2023-03-31T17:52:22.729Z,12.84
2023-03-31T17:54:53.411Z,12.79
2023-03-31T17:57:22.295Z,12.79
2023-03-31T17:59:50.998Z,12.75
2023-03-31T18:02:24.479Z,12.72
2023-03-31T18:07:55.415Z,12.72
2023-03-31T18:10:15.465Z,12.71
2023-03-31T18:12:46.700Z,12.50
2023-03-31T18:18:11.163Z,12.80
2023-03-31T18:20:39.906Z,12.70
2023-03-31T18:23:08.521Z,12.90
2023-03-31T18:25:37.459Z,12.76
2023-03-31T18:28:06.685Z,12.72
2023-03-31T18:30:35.474Z,12.65
2023-03-31T18:33:07.333Z,12.70
2023-03-31T18:35:37.237Z,12.51
2023-03-31T18:38:06.167Z,12.43
2023-03-31T18:40:37.410Z,12.35
2023-03-31T18:43:09.703Z,12.26
2023-03-31T18:45:39.972Z,12.28
2023-03-31T18:48:15.213Z,12.14
2023-03-31T18:50:50.144Z,12.16
2023-03-31T18:53:33.256Z,12.15
2023-03-31T18:56:06.632Z,12.17
2023-03-31T18:58:37.726Z,12.16
2023-03-31T19:01:06.726Z,12.06
2023-03-31T19:03:36.881Z,11.99
2023-03-31T19:06:10.911Z,12.01
2023-03-31T19:08:41.675Z,11.99
2023-03-31T19:11:18.030Z,12.04
2023-03-31T19:13:47.026Z,12.07
2023-03-31T19:16:16.291Z,12.04
2023-03-31T19:18:46.729Z,11.99
2023-03-31T19:23:55.427Z,12.12
2023-03-31T19:26:28.483Z,12.05
2023-03-31T19:29:09.253Z,12.03
2023-03-31T19:31:41.706Z,11.85
2023-03-31T19:34:13.083Z,11.92
2023-03-31T19:36:41.764Z,11.90
2023-03-31T19:39:11.586Z,11.94
2023-03-31T19:41:42.036Z,11.94
2023-03-31T19:44:12.475Z,12.04
2023-03-31T19:46:45.645Z,11.92
2023-03-31T19:49:14.551Z,11.92
2023-03-31T19:51:45.034Z,11.84
2023-03-31T19:54:26.050Z,11.69
2023-03-31T19:56:54.816Z,11.79
2023-03-31T19:59:30.828Z,11.69
2023-03-31T20:01:59.793Z,11.63
2023-03-31T20:04:28.726Z,11.58
2023-03-31T20:06:57.962Z,11.56
2023-03-31T20:09:36.475Z,11.55
2023-03-31T20:12:05.514Z,11.44
2023-03-31T20:14:34.313Z,11.45
2023-03-31T20:23:55.331Z,11.39
2023-03-31T20:32:41.599Z,11.10
2023-03-31T20:35:14.112Z,11.06
2023-03-31T20:37:52.134Z,11.08
2023-03-31T20:40:25.740Z,10.95
2023-03-31T20:42:56.326Z,10.88
2023-03-31T20:45:25.450Z,10.87
2023-03-31T20:47:57.484Z,10.82
2023-03-31T20:50:28.519Z,10.33
2023-03-31T20:53:04.949Z,10.77
2023-03-31T20:55:35.881Z,10.29
2023-03-31T20:58:06.607Z,10.63
2023-03-31T21:00:38.989Z,10.66
2023-03-31T21:03:11.678Z,10.55
2023-03-31T21:05:56.128Z,10.65
2023-03-31T21:08:33.911Z,10.61
2023-03-31T21:11:06.325Z,10.50
2023-03-31T21:13:37.619Z,10.47
2023-03-31T21:16:14.746Z,10.52
2023-03-31T21:18:49.843Z,10.50
2023-03-31T21:21:19.936Z,10.44
2023-03-31T21:23:51.648Z,10.40
2023-03-31T21:26:25.493Z,10.34
2023-03-31T21:28:55.207Z,10.35
2023-03-31T21:31:30.535Z,10.58
2023-03-31T21:34:04.586Z,10.48
2023-03-31T21:36:33.564Z,10.55
2023-03-31T21:39:05.749Z,10.53
2023-03-31T21:41:41.089Z,10.45
2023-03-31T21:44:10.283Z,10.30
2023-03-31T21:46:40.005Z,10.37
2023-03-31T21:49:11.868Z,10.29
2023-03-31T21:51:41.262Z,10.23
2023-03-31T21:54:10.246Z,10.06
2023-03-31T21:56:39.400Z,10.21
2023-03-31T21:59:08.745Z,10.19
2023-03-31T22:01:37.781Z,10.10
2023-03-31T22:04:09.567Z,10.19
2023-03-31T22:06:39.954Z,10.33
2023-03-31T22:09:08.746Z,10.48
2023-03-31T22:11:37.602Z,10.57
2023-03-31T22:14:06.761Z,10.65
2023-03-31T22:16:35.587Z,10.81
2023-03-31T22:19:04.916Z,10.95
2023-03-31T22:21:33.693Z,11.01
2023-03-31T22:24:02.966Z,11.06
2023-03-31T22:26:32.388Z,10.96
2023-03-31T22:29:01.185Z,10.92
2023-03-31T22:31:30.037Z,10.91
2023-03-31T22:34:01.172Z,10.92
2023-03-31T22:36:30.175Z,10.72
2023-03-31T22:38:58.984Z,10.86
2023-03-31T22:41:30.465Z,10.85
2023-03-31T22:43:59.836Z,10.93
2023-03-31T22:46:28.885Z,10.49
2023-03-31T22:48:59.488Z,10.51
2023-03-31T22:51:31.138Z,10.62
2023-03-31T22:54:01.590Z,10.62
2023-03-31T22:56:30.869Z,10.47
2023-03-31T22:59:09.133Z,10.47
2023-03-31T23:04:59.986Z,10.26
2023-03-31T23:07:30.310Z,10.35
2023-03-31T23:10:02.061Z,10.53
2023-03-31T23:12:30.990Z,10.62
2023-03-31T23:14:59.714Z,10.63
2023-03-31T23:17:28.431Z,10.66
2023-03-31T23:19:58.940Z,10.63
2023-03-31T23:22:27.732Z,10.65
2023-03-31T23:24:56.885Z,10.79
2023-03-31T23:27:25.611Z,10.81
2023-03-31T23:29:54.331Z,10.76
2023-03-31T23:32:23.090Z,10.78
2023-03-31T23:34:51.901Z,10.94
2023-03-31T23:37:20.611Z,10.91
2023-03-31T23:39:49.438Z,10.89
2023-03-31T23:42:19.916Z,10.85
2023-03-31T23:44:48.830Z,10.72
2023-03-31T23:47:17.674Z,10.82
2023-03-31T23:49:46.837Z,10.76
2023-03-31T23:52:15.525Z,10.69
2023-03-31T23:54:44.339Z,10.74
2023-03-31T23:57:13.254Z,10.81
2023-03-31T23:59:41.977Z,10.84
